Bob Hope Airport
KBUR : now visible

Airfield :











YOU CAN JOIN US ON...

 
LOGIN :

Register | Disclaimer

   EN    FR    IT 

 









Legend :    VFR   Marginal VFR   IFR   Intensive IFR   Very Intensive IFR
Visi :
Ceiling :
>= 8 km
>= 3000ft
5 to 8 km
1000 to 3000 ft
1500m to 5 km
500 to 1000 ft
800 to 1500m
200 to 500 ft
< 800m
< 200 ft
Symbols :   Thunderstorms  Fog  Heavy snow  Heavy precipitations  Wind > 20 kt






- Airport Elevation : 778 ft
- IATA code : BUR


KBUR - Bob Hope

CURRENT METAR :
  • 261753Z 13009KT 10SM CLR 18/M26 A3006 RMK AO2 SLP168 T01831256 10200 20139 50012

EXPIRED METARs :
  • 261711Z 36014G24KT 9SM CLR 19/M28 A3005 RMK AO2 T01941278
  • 261653Z 24006KT 10SM CLR 18/M23 A3006 RMK AO2 SLP169 T01781233
  • 261553Z 12005KT 10SM CLR 17/M26 A3004 RMK AO2 SLP164 T01671256

TAF KBUR
Valid from the 26 at 18:00 until the 27 at 18:00 UTC


261743Z 2618/2718 36014G24KT P6SM SKC WS010/04035KT
FM262100 04015KT P6SM SKC
FM270300 34010KT P6SM SKC
FM270600 VRB03KT P6SM SKC
FM271400 01010KT P6SM SKC
KZLA FIR / North America



MET'MAP, your aeronautical weather chart ! - Copyright ORBIFLY December 2007 - Disclaimer

ORBIFLY MET'MAP TEAM :

Programming & Development : Alexandra Zaïnal
Concept & original design : Baudouin d'Aumeries
Assistance for programming : Marc-Olivier Méhu
Technical & hardware support : Manuel Goepfert

Contact : metmap@orbifly.com




SOURCES & CREDITS :

   NOAA       Earth
Advisory